Time;durP1;ratioP1;P1;durP2;ratioP2;P2;SDS_P1;SDS_P2;PMS_P1;PMS_P2;Temp;Humidity;BMP_temperature;BMP_pressure;BME280_temperature;BME280_humidity;BME280_pressure;Samples;Min_cycle;Max_cycle;Signal;HPM_P1;HPM_P2
2023/03/13 00:02:46;;;;;;;;;;;;;;;-144.98;100.00;62585.19;4958370;29;19978;-64
2023/03/13 00:05:54;;;;;;;;;;;;;;;-144.98;100.00;62585.19;4958102;29;19960;-64
2023/03/13 00:08:59;;;;;;;;;;;;;;;-144.98;100.00;62585.19;4958276;29;19976;-64
2023/03/13 00:12:02;;;;;;;;;;;;;;;-144.98;100.00;62585.19;4958113;29;19925;-64
2023/03/13 00:15:06;;;;;;;;;;;;;;;-144.98;100.00;62585.19;4957892;29;19956;-64
2023/03/13 00:18:09;;;;;;;;;;;;;;;-144.98;100.00;62585.19;4957889;29;19926;-65
2023/03/13 00:21:12;;;;;;;;;;;;;;;-144.98;100.00;62585.19;4957953;29;19925;-64
2023/03/13 00:24:15;;;;;;;;;;;;;;;-144.98;100.00;62585.19;4957685;28;19930;-64
2023/03/13 00:27:18;;;;;;;;;;;;;;;-144.98;100.00;62585.19;4957854;29;19977;-64
2023/03/13 00:30:21;;;;;;;;;;;;;;;-144.98;100.00;62585.19;4957700;29;19973;-64
2023/03/13 00:33:24;;;;;;;;;;;;;;;-144.98;100.00;62585.19;4957692;29;20385;-64
2023/03/13 00:36:31;;;;;;;;;;;;;;;-144.98;100.00;62585.19;4957672;29;19925;-64
2023/03/13 00:39:34;;;;;;;;;;;;;;;-144.98;100.00;62585.19;4957642;29;20025;-64
2023/03/13 00:42:38;;;;;;;;;;;;;;;-144.98;100.00;62585.19;4957471;29;19973;-64
2023/03/13 00:45:42;;;;;;;;;;;;;;;-144.98;100.00;62585.19;4957425;29;19925;-64
2023/03/13 00:48:45;;;;;;;;;;;;;;;-144.98;100.00;62585.19;4945544;29;19944;-64
2023/03/13 00:51:49;;;;;;;;;;;;;;;-144.98;100.00;62585.19;4957415;29;19972;-64
2023/03/13 00:54:52;;;;;;;;;;;;;;;-144.98;100.00;62585.19;4957602;29;19925;-64
2023/03/13 00:57:55;;;;;;;;;;;;;;;-144.98;100.00;62585.19;4957225;29;19973;-64
2023/03/13 01:01:05;;;;;;;;;;;;;;;-144.98;100.00;62585.19;4957226;29;20017;-64
2023/03/13 01:04:10;;;;;;;;;;;;;;;-144.98;100.00;62585.19;4945256;29;20389;-64
2023/03/13 01:07:13;;;;;;;;;;;;;;;-144.98;100.00;62585.19;4957093;29;20394;-64
2023/03/13 01:10:16;;;;;;;;;;;;;;;-144.98;100.00;62585.19;4957050;29;20406;-64
2023/03/13 01:13:19;;;;;;;;;;;;;;;-144.98;100.00;62585.19;4956948;29;20434;-64
2023/03/13 01:16:22;;;;;;;;;;;;;;;-144.98;100.00;62585.19;4956908;29;20010;-64
2023/03/13 01:19:25;;;;;;;;;;;;;;;-144.98;100.00;62585.19;4956828;29;19925;-64
2023/03/13 01:22:28;;;;;;;;;;;;;;;-144.98;100.00;62585.19;4933831;28;19972;-65
2023/03/13 01:25:34;;;;;;;;;;;;;;;-144.98;100.00;62585.19;4956634;29;19990;-64
2023/03/13 01:28:37;;;;;;;;;;;;;;;-144.98;100.00;62585.19;4956631;29;19925;-64
2023/03/13 01:31:40;;;;;;;;;;;;;;;-144.98;100.00;62585.19;4944762;29;19946;-64
2023/03/13 01:34:43;;;;;;;;;;;;;;;-144.98;100.00;62585.19;4956769;29;19925;-64
2023/03/13 01:37:46;;;;;;;;;;;;;;;-144.98;100.00;62585.19;4944250;29;19971;-64
2023/03/13 01:40:49;;;;;;;;;;;;;;;-144.98;100.00;62585.19;4944532;29;20013;-64
2023/03/13 01:43:52;;;;;;;;;;;;;;;-144.98;100.00;62585.19;4944462;29;19945;-64
2023/03/13 01:46:55;;;;;;;;;;;;;;;-144.98;100.00;62585.19;4944424;29;19964;-64
2023/03/13 01:50:01;;;;;;;;;;;;;;;-144.98;100.00;62585.19;4956041;29;19933;-64
2023/03/13 01:53:28;;;;;;;;;;;;;;;-144.98;100.00;62585.19;4944472;29;19926;-64
2023/03/13 01:56:44;;;;;;;;;;;;;;;-144.98;100.00;62585.19;4944343;29;19925;-64
2023/03/13 01:59:54;;;;;;;;;;;;;;;-144.98;100.00;62585.19;4944124;29;19926;-64
2023/03/13 02:03:00;;;;;;;;;;;;;;;-144.98;100.00;62585.19;4944104;29;20013;-64
2023/03/13 02:06:05;;;;;;;;;;;;;;;-144.98;100.00;62585.19;4944032;29;20099;-64
2023/03/13 02:09:15;;;;;;;;;;;;;;;-144.98;100.00;62585.19;4955911;29;20386;-64
2023/03/13 02:12:26;;;;;;;;;;;;;;;-144.98;100.00;62585.19;4955871;29;19941;-64
2023/03/13 02:15:30;;;;;;;;;;;;;;;-144.98;100.00;62585.19;4943985;29;20339;-64
2023/03/13 02:18:35;;;;;;;;;;;;;;;-144.98;100.00;62585.19;4955764;29;19925;-64
2023/03/13 02:21:41;;;;;;;;;;;;;;;-144.98;100.00;62585.19;4955684;29;19925;-64
2023/03/13 02:24:53;;;;;;;;;;;;;;;-144.98;100.00;62585.19;4955630;29;19974;-64
2023/03/13 02:27:59;;;;;;;;;;;;;;;-144.98;100.00;62585.19;4943683;29;19925;-64
2023/03/13 02:31:04;;;;;;;;;;;;;;;-144.98;100.00;62585.19;4932797;29;19965;-64
2023/03/13 02:34:07;;;;;;;;;;;;;;;-144.98;100.00;62585.19;4943961;29;20008;-64
2023/03/13 02:37:12;;;;;;;;;;;;;;;-144.98;100.00;62585.19;4943826;29;19961;-64
2023/03/13 02:40:20;;;;;;;;;;;;;;;-144.98;100.00;62585.19;4943538;29;19985;-64
2023/03/13 02:43:32;;;;;;;;;;;;;;;-144.98;100.00;62585.19;4937981;29;19930;-64
2023/03/13 02:46:43;;;;;;;;;;;;;;;-144.98;100.00;62585.19;4954475;29;20010;-64
2023/03/13 02:49:47;;;;;;;;;;;;;;;-144.98;100.00;62585.19;4931778;29;20351;-64
2023/03/13 02:52:55;;;;;;;;;;;;;;;-144.98;100.00;62585.19;4943358;29;19925;-64
2023/03/13 02:55:58;;;;;;;;;;;;;;;-144.98;100.00;62585.19;4943472;29;19924;-64
2023/03/13 02:59:02;;;;;;;;;;;;;;;-144.98;100.00;62585.19;4943184;29;19926;-64
2023/03/13 03:02:05;;;;;;;;;;;;;;;-144.98;100.00;62585.19;4943202;29;20054;-64
2023/03/13 03:05:09;;;;;;;;;;;;;;;-144.98;100.00;62585.19;4943587;29;19977;-64
2023/03/13 03:08:12;;;;;;;;;;;;;;;-144.98;100.00;62585.19;4932281;29;19970;-64
2023/03/13 03:11:16;;;;;;;;;;;;;;;-144.98;100.00;62585.19;4928849;29;19929;-64
2023/03/13 03:14:22;;;;;;;;;;;;;;;-144.98;100.00;62585.19;4943096;29;20030;-64
2023/03/13 03:17:26;;;;;;;;;;;;;;;-144.98;100.00;62585.19;4943185;29;20343;-64
2023/03/13 03:20:29;;;;;;;;;;;;;;;-144.98;100.00;62585.19;4955088;29;20061;-64
2023/03/13 03:23:33;;;;;;;;;;;;;;;-144.98;100.00;62585.19;4942954;29;19929;-64
2023/03/13 03:26:36;;;;;;;;;;;;;;;-144.98;100.00;62585.19;4943148;29;19970;-64
2023/03/13 03:29:44;;;;;;;;;;;;;;;-144.98;100.00;62585.19;4943074;29;19925;-64
2023/03/13 03:32:48;;;;;;;;;;;;;;;-144.98;100.00;62585.19;4954945;29;19925;-64
2023/03/13 03:35:51;;;;;;;;;;;;;;;-144.98;100.00;62585.19;4954430;29;19967;-64
2023/03/13 03:38:54;;;;;;;;;;;;;;;-144.98;100.00;62585.19;4942846;29;19925;-64
2023/03/13 03:42:03;;;;;;;;;;;;;;;-144.98;100.00;62585.19;4942988;29;19988;-64
2023/03/13 03:45:07;;;;;;;;;;;;;;;-144.98;100.00;62585.19;4942814;29;19932;-64
2023/03/13 03:48:10;;;;;;;;;;;;;;;-144.98;100.00;62585.19;4954861;29;19929;-64
2023/03/13 03:51:13;;;;;;;;;;;;;;;-144.98;100.00;62585.19;4942862;29;19926;-64
2023/03/13 03:54:19;;;;;;;;;;;;;;;-144.98;100.00;62585.19;4932178;29;19925;-64
2023/03/13 03:57:23;;;;;;;;;;;;;;;-144.98;100.00;62585.19;4954629;29;20426;-64
2023/03/13 04:00:27;;;;;;;;;;;;;;;-144.98;100.00;62585.19;4957567;28;20339;-64
2023/03/13 04:03:31;;;;;;;;;;;;;;;-144.98;100.00;62585.19;4946513;29;19930;-64
2023/03/13 04:06:34;;;;;;;;;;;;;;;-144.98;100.00;62585.19;4945351;29;19926;-64
2023/03/13 04:09:39;;;;;;;;;;;;;;;-144.98;100.00;62585.19;4957261;29;20025;-64
2023/03/13 04:12:44;;;;;;;;;;;;;;;-144.98;100.00;62585.19;4946061;29;20400;-64
2023/03/13 04:15:48;;;;;;;;;;;;;;;-144.98;100.00;62585.19;4939018;29;20279;-64
2023/03/13 04:18:52;;;;;;;;;;;;;;;-144.98;100.00;62585.19;4928942;29;19969;-64
2023/03/13 04:21:56;;;;;;;;;;;;;;;-144.98;100.00;62585.19;4945989;28;19929;-64
2023/03/13 04:24:59;;;;;;;;;;;;;;;-144.98;100.00;62585.19;4958163;29;19965;-64
2023/03/13 04:28:05;;;;;;;;;;;;;;;-144.98;100.00;62585.19;4945846;29;19925;-64
2023/03/13 04:31:15;;;;;;;;;;;;;;;-144.98;100.00;62585.19;4946273;29;19941;-64
2023/03/13 04:34:34;;;;;;;;;;;;;;;-144.98;100.00;62585.19;4957741;29;19988;-64
2023/03/13 04:38:02;;;;;;;;;;;;;;;-144.98;100.00;62585.19;4945751;29;20331;-64
2023/03/13 04:41:28;;;;;;;;;;;;;;;-144.98;100.00;62585.19;4957567;29;19965;-64
2023/03/13 04:44:45;;;;;;;;;;;;;;;-144.98;100.00;62585.19;4944618;29;19977;-64
2023/03/13 04:47:55;;;;;;;;;;;;;;;-144.98;100.00;62585.19;4945494;29;20018;-64
2023/03/13 04:51:16;;;;;;;;;;;;;;;-144.98;100.00;62585.19;4957391;29;19969;-64
2023/03/13 04:54:26;;;;;;;;;;;;;;;-144.98;100.00;62585.19;4945470;29;19933;-64
2023/03/13 04:57:37;;;;;;;;;;;;;;;-144.98;100.00;62585.19;4945119;29;20361;-64
2023/03/13 05:01:09;;;;;;;;;;;;;;;-144.98;100.00;62585.19;4908315;29;20438;-64
2023/03/13 05:04:31;;;;;;;;;;;;;;;-144.98;100.00;62585.19;4957096;29;20061;-64
2023/03/13 05:07:59;;;;;;;;;;;;;;;-144.98;100.00;62585.19;4945142;29;19924;-64
2023/03/13 05:11:32;;;;;;;;;;;;;;;-144.98;100.00;62585.19;4956559;28;19925;-64
2023/03/13 05:14:49;;;;;;;;;;;;;;;-144.98;100.00;62585.19;4945059;29;19991;-64
2023/03/13 05:18:09;;;;;;;;;;;;;;;-144.98;100.00;62585.19;4944930;29;19926;-63
2023/03/13 05:21:21;;;;;;;;;;;;;;;-144.98;100.00;62585.19;4956925;29;20394;-63
2023/03/13 05:24:50;;;;;;;;;;;;;;;-144.98;100.00;62585.19;4944759;29;20031;-64
2023/03/13 05:28:12;;;;;;;;;;;;;;;-144.98;100.00;62585.19;4956747;29;20017;-64
2023/03/13 05:31:27;;;;;;;;;;;;;;;-144.98;100.00;62585.19;4956609;29;19973;-64
2023/03/13 05:34:59;;;;;;;;;;;;;;;-144.98;100.00;62585.19;4956155;29;19925;-64
2023/03/13 05:38:28;;;;;;;;;;;;;;;-144.98;100.00;62585.19;4951400;29;19925;-63
2023/03/13 05:41:54;;;;;;;;;;;;;;;-144.98;100.00;62585.19;4944406;29;19941;-64
2023/03/13 05:45:16;;;;;;;;;;;;;;;-144.98;100.00;62585.19;4955820;29;20460;-65
2023/03/13 05:48:37;;;;;;;;;;;;;;;-144.98;100.00;62585.19;4943352;29;19929;-65
2023/03/13 05:51:51;;;;;;;;;;;;;;;-144.98;100.00;62585.19;4944645;29;20434;-65
2023/03/13 05:55:23;;;;;;;;;;;;;;;-144.98;100.00;62585.19;4956337;29;19929;-64
2023/03/13 05:58:45;;;;;;;;;;;;;;;-144.98;100.00;62585.19;4955505;29;19970;-64
2023/03/13 06:02:08;;;;;;;;;;;;;;;-144.98;100.00;62585.19;4956050;29;19965;-65
2023/03/13 06:05:23;;;;;;;;;;;;;;;-144.98;100.00;62585.19;4956071;29;20359;-65
2023/03/13 06:08:27;;;;;;;;;;;;;;;-144.98;100.00;62585.19;4944421;29;20442;-65
2023/03/13 06:11:31;;;;;;;;;;;;;;;-144.98;100.00;62585.19;4955969;29;20011;-65
2023/03/13 06:14:34;;;;;;;;;;;;;;;-144.98;100.00;62585.19;4943812;29;19973;-65
2023/03/13 06:17:47;;;;;;;;;;;;;;;-144.98;100.00;62585.19;4943876;29;20299;-65
2023/03/13 06:20:55;;;;;;;;;;;;;;;-144.98;100.00;62585.19;4955764;29;20299;-65
2023/03/13 06:23:59;;;;;;;;;;;;;;;-144.98;100.00;62585.19;4955429;28;19930;-65
2023/03/13 06:27:03;;;;;;;;;;;;;;;-144.98;100.00;62585.19;4955566;29;20291;-64
2023/03/13 06:30:08;;;;;;;;;;;;;;;-144.98;100.00;62585.19;4943746;29;19974;-65
2023/03/13 06:33:11;;;;;;;;;;;;;;;-144.98;100.00;62585.19;4955691;29;20314;-65
2023/03/13 06:36:14;;;;;;;;;;;;;;;-144.98;100.00;62585.19;4955395;29;19976;-65
2023/03/13 06:39:17;;;;;;;;;;;;;;;-144.98;100.00;62585.19;4955832;29;19925;-65
2023/03/13 06:42:20;;;;;;;;;;;;;;;-144.98;100.00;62585.19;4955274;29;19928;-65
2023/03/13 06:45:23;;;;;;;;;;;;;;;-144.98;100.00;62585.19;4943373;29;20306;-69
2023/03/13 06:48:26;;;;;;;;;;;;;;;-144.98;100.00;62585.19;4954939;29;19937;-66
2023/03/13 06:51:29;;;;;;;;;;;;;;;-144.98;100.00;62585.19;4955509;29;19925;-66
2023/03/13 06:54:32;;;;;;;;;;;;;;;-144.98;100.00;62585.19;4955152;29;20299;-64
2023/03/13 06:57:35;;;;;;;;;;;;;;;-144.98;100.00;62585.19;4955045;29;20406;-65
2023/03/13 07:00:39;;;;;;;;;;;;;;;-144.98;100.00;62585.19;4955255;29;19925;-66
2023/03/13 07:03:43;;;;;;;;;;;;;;;-144.98;100.00;62585.19;4955163;29;19977;-65
2023/03/13 07:06:47;;;;;;;;;;;;;;;-144.98;100.00;62585.19;4955158;29;19941;-66
2023/03/13 07:09:50;;;;;;;;;;;;;;;-144.98;100.00;62585.19;4955014;29;20347;-66
2023/03/13 07:12:53;;;;;;;;;;;;;;;-144.98;100.00;62585.19;4954786;29;19925;-65
2023/03/13 07:16:03;;;;;;;;;;;;;;;-144.98;100.00;62585.19;4955117;29;19929;-67
2023/03/13 07:19:06;;;;;;;;;;;;;;;-144.98;100.00;62585.19;4955058;29;19964;-65
2023/03/13 07:22:09;;;;;;;;;;;;;;;-144.98;100.00;62585.19;4954839;28;20275;-65
2023/03/13 07:25:12;;;;;;;;;;;;;;;-144.98;100.00;62585.19;4954985;29;20390;-66
2023/03/13 07:28:15;;;;;;;;;;;;;;;-144.98;100.00;62585.19;4954933;29;19926;-66
2023/03/13 07:31:20;;;;;;;;;;;;;;;-144.98;100.00;62585.19;4955000;29;19926;-67
2023/03/13 07:34:23;;;;;;;;;;;;;;;-144.98;100.00;62585.19;4956079;28;19925;-67
2023/03/13 07:37:26;;;;;;;;;;;;;;;-144.98;100.00;62585.19;4958953;29;19945;-64
2023/03/13 07:40:29;;;;;;;;;;;;;;;-144.98;100.00;62585.19;4958670;29;19974;-64
2023/03/13 07:43:33;;;;;;;;;;;;;;;-144.98;100.00;62585.19;4958678;29;19990;-65
2023/03/13 07:46:36;;;;;;;;;;;;;;;-144.98;100.00;62585.19;4954592;29;20019;-75
2023/03/13 07:49:42;;;;;;;;;;;;;;;-144.98;100.00;62585.19;4954794;29;19970;-79
2023/03/13 07:52:45;;;;;;;;;;;;;;;-144.98;100.00;62585.19;4958402;29;19929;-75
2023/03/13 07:55:57;;;;;;;;;;;;;;;-144.98;100.00;62585.19;4958055;29;19943;-72
2023/03/13 07:59:00;;;;;;;;;;;;;;;-144.98;100.00;62585.19;4958279;29;19982;-73
2023/03/13 08:02:03;;;;;;;;;;;;;;;-144.98;100.00;62585.19;4958294;29;20504;-74
2023/03/13 08:05:07;;;;;;;;;;;;;;;-144.98;100.00;62585.19;4958356;29;19929;-78
2023/03/13 08:08:10;;;;;;;;;;;;;;;-144.98;100.00;62585.19;4958402;29;19925;-78
2023/03/13 08:11:17;;;;;;;;;;;;;;;-144.98;100.00;62585.19;4958065;29;19974;-75
2023/03/13 08:14:20;;;;;;;;;;;;;;;-144.98;100.00;62585.19;4946126;29;20405;-76
2023/03/13 08:17:23;;;;;;;;;;;;;;;-144.98;100.00;62585.19;4958200;29;19972;-78
2023/03/13 08:20:26;;;;;;;;;;;;;;;-144.98;100.00;62585.19;4957996;29;19926;-78
2023/03/13 08:23:30;;;;;;;;;;;;;;;-144.98;100.00;62585.19;4957694;28;19969;-76
2023/03/13 08:26:35;;;;;;;;;;;;;;;-144.98;100.00;62585.19;4957580;29;20025;-77
2023/03/13 08:29:39;;;;;;;;;;;;;;;-144.98;100.00;62585.19;4957642;29;19974;-77
2023/03/13 08:32:42;;;;;;;;;;;;;;;-144.98;100.00;62585.19;4957644;29;19925;-79
2023/03/13 08:35:45;;;;;;;;;;;;;;;-144.98;100.00;62585.19;4946199;29;19925;-78
2023/03/13 08:38:49;;;;;;;;;;;;;;;-144.98;100.00;62585.19;4957715;29;19925;-78
2023/03/13 08:41:52;;;;;;;;;;;;;;;-144.98;100.00;62585.19;4957554;29;20402;-78
2023/03/13 08:44:55;;;;;;;;;;;;;;;-144.98;100.00;62585.19;4957257;28;19929;-77
2023/03/13 08:47:58;;;;;;;;;;;;;;;-144.98;100.00;62585.19;4957404;29;19925;-78
2023/03/13 08:51:02;;;;;;;;;;;;;;;-144.98;100.00;62585.19;4957446;29;20016;-78
2023/03/13 08:54:06;;;;;;;;;;;;;;;-144.98;100.00;62585.19;4957696;29;19980;-80
2023/03/13 08:57:11;;;;;;;;;;;;;;;-144.98;100.00;62585.19;4957268;29;19974;-79
2023/03/13 09:00:15;;;;;;;;;;;;;;;-144.98;100.00;62585.19;4957326;29;19956;-76
2023/03/13 09:03:18;;;;;;;;;;;;;;;-144.98;100.00;62585.19;4957045;29;19929;-73
2023/03/13 09:06:21;;;;;;;;;;;;;;;-144.98;100.00;62585.19;4957117;29;20441;-77
2023/03/13 09:09:24;;;;;;;;;;;;;;;-144.98;100.00;62585.19;4957204;29;19926;-72
2023/03/13 09:12:29;;;;;;;;;;;;;;;-144.98;100.00;62585.19;4956981;29;19925;-76
2023/03/13 09:15:33;;;;;;;;;;;;;;;-144.98;100.00;62585.19;4957244;29;19925;-75
2023/03/13 09:18:37;;;;;;;;;;;;;;;-144.98;100.00;62585.19;4956957;29;19977;-72
2023/03/13 09:21:40;;;;;;;;;;;;;;;-144.98;100.00;62585.19;4956821;29;19925;-72
2023/03/13 09:24:43;;;;;;;;;;;;;;;-144.98;100.00;62585.19;4956779;29;19986;-74
2023/03/13 09:27:47;;;;;;;;;;;;;;;-144.98;100.00;62585.19;4956682;29;19941;-75
2023/03/13 09:30:50;;;;;;;;;;;;;;;-144.98;100.00;62585.19;4956657;29;20302;-75
2023/03/13 09:33:53;;;;;;;;;;;;;;;-144.98;100.00;62585.19;4955965;29;19945;-74
2023/03/13 09:36:56;;;;;;;;;;;;;;;-144.98;100.00;62585.19;4955583;29;19981;-74
2023/03/13 09:40:00;;;;;;;;;;;;;;;-144.98;100.00;62585.19;4944037;29;19986;-73
2023/03/13 09:43:04;;;;;;;;;;;;;;;-144.98;100.00;62585.19;4956374;29;20390;-74
2023/03/13 09:46:12;;;;;;;;;;;;;;;-144.98;100.00;62585.19;4943130;29;20267;-74
2023/03/13 09:49:23;;;;;;;;;;;;;;;-144.98;100.00;62585.19;4954778;29;19929;-74
2023/03/13 09:52:32;;;;;;;;;;;;;;;-144.98;100.00;62585.19;4954938;29;19926;-74
2023/03/13 09:55:37;;;;;;;;;;;;;;;-144.98;100.00;62585.19;4955877;29;19925;-75
2023/03/13 09:58:42;;;;;;;;;;;;;;;-144.98;100.00;62585.19;4955706;29;19925;-78
2023/03/13 10:01:48;;;;;;;;;;;;;;;-144.98;100.00;62585.19;4944078;29;19925;-77
2023/03/13 10:04:55;;;;;;;;;;;;;;;-144.98;100.00;62585.19;4956009;29;19965;-74
2023/03/13 10:08:14;;;;;;;;;;;;;;;-144.98;100.00;62585.19;4955901;29;19925;-73
2023/03/13 10:11:25;;;;;;;;;;;;;;;-144.98;100.00;62585.19;4955871;29;20025;-73
2023/03/13 10:14:31;;;;;;;;;;;;;;;-144.98;100.00;62585.19;4955929;29;19941;-73
2023/03/13 10:17:36;;;;;;;;;;;;;;;-144.98;100.00;62585.19;4944015;29;19926;-74
2023/03/13 10:20:42;;;;;;;;;;;;;;;-144.98;100.00;62585.19;4955591;29;20278;-72
2023/03/13 10:24:06;;;;;;;;;;;;;;;-144.98;100.00;62585.19;4955628;28;20037;-70
2023/03/13 10:27:13;;;;;;;;;;;;;;;-144.98;100.00;62585.19;4955875;29;19929;-68
2023/03/13 10:30:22;;;;;;;;;;;;;;;-144.98;100.00;62585.19;4955481;29;20397;-68
2023/03/13 10:33:28;;;;;;;;;;;;;;;-144.98;100.00;62585.19;4955529;29;19930;-68
2023/03/13 10:36:38;;;;;;;;;;;;;;;-144.98;100.00;62585.19;4955142;29;19925;-69
2023/03/13 10:39:42;;;;;;;;;;;;;;;-144.98;100.00;62585.19;4943950;29;20303;-69
2023/03/13 10:42:45;;;;;;;;;;;;;;;-144.98;100.00;62585.19;4943485;29;20463;-69
2023/03/13 10:45:48;;;;;;;;;;;;;;;-144.98;100.00;62585.19;4955750;29;20286;-69
2023/03/13 10:48:53;;;;;;;;;;;;;;;-144.98;100.00;62585.19;4943344;29;19929;-69
2023/03/13 10:51:58;;;;;;;;;;;;;;;-144.98;100.00;62585.19;4955761;29;19969;-70
2023/03/13 10:55:06;;;;;;;;;;;;;;;-144.98;100.00;62585.19;4955322;29;19924;-69
2023/03/13 10:58:16;;;;;;;;;;;;;;;-144.98;100.00;62585.19;4955523;29;19989;-71
2023/03/13 11:01:23;;;;;;;;;;;;;;;-144.98;100.00;62585.19;4943373;29;19925;-71
2023/03/13 11:04:34;;;;;;;;;;;;;;;-144.98;100.00;62585.19;4955128;29;19994;-71
2023/03/13 11:07:40;;;;;;;;;;;;;;;-144.98;100.00;62585.19;4955144;29;20034;-70
2023/03/13 11:10:56;;;;;;;;;;;;;;;-144.98;100.00;62585.19;4955184;29;20171;-71
2023/03/13 11:14:07;;;;;;;;;;;;;;;-144.98;100.00;62585.19;4955417;29;19925;-71
2023/03/13 11:17:17;;;;;;;;;;;;;;;-144.98;100.00;62585.19;4954674;29;20291;-71
2023/03/13 11:20:37;;;;;;;;;;;;;;;-144.98;100.00;62585.19;4932770;29;19925;-71
2023/03/13 11:24:00;;;;;;;;;;;;;;;-144.98;100.00;62585.19;4943200;29;19956;-71
2023/03/13 11:27:11;;;;;;;;;;;;;;;-144.98;100.00;62585.19;4954959;29;19925;-71
2023/03/13 11:30:32;;;;;;;;;;;;;;;-144.98;100.00;62585.19;4955913;29;19968;-71
2023/03/13 11:33:49;;;;;;;;;;;;;;;-144.98;100.00;62585.19;4954794;29;19974;-70
2023/03/13 11:37:08;;;;;;;;;;;;;;;-144.98;100.00;62585.19;4955087;29;20030;-69
2023/03/13 11:40:21;;;;;;;;;;;;;;;-144.98;100.00;62585.19;4954763;29;19925;-72
2023/03/13 11:43:33;;;;;;;;;;;;;;;-144.98;100.00;62585.19;4942769;29;19929;-71
2023/03/13 11:46:36;;;;;;;;;;;;;;;-144.98;100.00;62585.19;4950695;29;19929;-74
2023/03/13 11:49:55;;;;;;;;;;;;;;;-144.98;100.00;62585.19;4954507;29;19929;-70
2023/03/13 11:53:04;;;;;;;;;;;;;;;-144.98;100.00;62585.19;4954350;29;19926;-76
2023/03/13 11:56:11;;;;;;;;;;;;;;;-144.98;100.00;62585.19;4954483;29;19926;-74
2023/03/13 11:59:32;;;;;;;;;;;;;;;-144.98;100.00;62585.19;4954707;29;20413;-73
2023/03/13 12:02:41;;;;;;;;;;;;;;;-144.98;100.00;62585.19;4954432;29;19926;-74
2023/03/13 12:05:57;;;;;;;;;;;;;;;-144.98;100.00;62585.19;4952997;29;19970;-75
2023/03/13 12:09:19;;;;;;;;;;;;;;;-144.98;100.00;62585.19;4954116;29;19930;-74
2023/03/13 12:12:26;;;;;;;;;;;;;;;-144.98;100.00;62585.19;4937056;29;19925;-72
2023/03/13 12:15:31;;;;;;;;;;;;;;;-144.98;100.00;62585.19;4949759;29;19949;-73
2023/03/13 12:18:37;;;;;;;;;;;;;;;-144.98;100.00;62585.19;4954766;29;19926;-72
2023/03/13 12:21:46;;;;;;;;;;;;;;;-144.98;100.00;62585.19;4957685;28;19925;-74
2023/03/13 12:25:04;;;;;;;;;;;;;;;-144.98;100.00;62585.19;4957695;29;20418;-75
2023/03/13 12:28:26;;;;;;;;;;;;;;;-144.98;100.00;62585.19;4957840;29;19929;-75
2023/03/13 12:31:35;;;;;;;;;;;;;;;-144.98;100.00;62585.19;4957818;29;19974;-74
2023/03/13 12:38:59;;;;;;;;;;;;;;;-144.98;100.00;62585.19;4893695;29;20013;-74
2023/03/13 12:42:22;;;;;;;;;;;;;;;-144.98;100.00;62585.19;4957336;29;19929;-73
2023/03/13 12:46:09;;;;;;;;;;;;;;;-144.98;100.00;62585.19;4953692;29;19986;-73
2023/03/13 12:49:17;;;;;;;;;;;;;;;-144.98;100.00;62585.19;4902518;29;20034;-73
2023/03/13 12:52:32;;;;;;;;;;;;;;;-144.98;100.00;62585.19;4931934;29;20010;-73
2023/03/13 12:55:35;;;;;;;;;;;;;;;-144.98;100.00;62585.19;4944662;29;19979;-73
2023/03/13 12:58:59;;;;;;;;;;;;;;;-144.98;100.00;62585.19;4957219;29;19982;-73
2023/03/13 13:02:13;;;;;;;;;;;;;;;-144.98;100.00;62585.19;4957224;29;19974;-74
2023/03/13 13:05:18;;;;;;;;;;;;;;;-144.98;100.00;62585.19;4955693;29;19933;-73
2023/03/13 13:08:23;;;;;;;;;;;;;;;-144.98;100.00;62585.19;4956604;29;20065;-74
2023/03/13 13:11:36;;;;;;;;;;;;;;;-144.98;100.00;62585.19;4957058;29;19982;-74
2023/03/13 13:14:48;;;;;;;;;;;;;;;-144.98;100.00;62585.19;4941821;29;19973;-74
2023/03/13 13:17:55;;;;;;;;;;;;;;;-144.98;100.00;62585.19;4957071;29;19925;-74
2023/03/13 13:21:01;;;;;;;;;;;;;;;-144.98;100.00;62585.19;4944836;29;19972;-74
2023/03/13 13:24:30;;;;;;;;;;;;;;;-144.98;100.00;62585.19;4956829;28;20026;-74
2023/03/13 13:27:34;;;;;;;;;;;;;;;-144.98;100.00;62585.19;4952586;29;19965;-75
2023/03/13 13:30:37;;;;;;;;;;;;;;;-144.98;100.00;62585.19;4956153;29;19972;-73
2023/03/13 13:33:40;;;;;;;;;;;;;;;-144.98;100.00;62585.19;4955878;29;19969;-73
2023/03/13 13:36:44;;;;;;;;;;;;;;;-144.98;100.00;62585.19;4955574;29;19941;-76
2023/03/13 13:39:49;;;;;;;;;;;;;;;-144.98;100.00;62585.19;4956687;29;19982;-74
2023/03/13 13:42:53;;;;;;;;;;;;;;;-144.98;100.00;62585.19;4956535;29;20404;-73
2023/03/13 13:45:59;;;;;;;;;;;;;;;-144.98;100.00;62585.19;4955470;29;20414;-72
2023/03/13 13:49:12;;;;;;;;;;;;;;;-144.98;100.00;62585.19;4955165;29;20360;-73
2023/03/13 13:52:18;;;;;;;;;;;;;;;-144.98;100.00;62585.19;4956347;29;20340;-73
2023/03/13 13:55:40;;;;;;;;;;;;;;;-144.98;100.00;62585.19;4956222;29;20305;-72
2023/03/13 13:58:44;;;;;;;;;;;;;;;-144.98;100.00;62585.19;4956544;29;20406;-74
2023/03/13 14:01:48;;;;;;;;;;;;;;;-144.98;100.00;62585.19;4955715;29;19925;-72
2023/03/13 14:05:00;;;;;;;;;;;;;;;-144.98;100.00;62585.19;4953959;29;19929;-72
2023/03/13 14:08:13;;;;;;;;;;;;;;;-144.98;100.00;62585.19;4942481;29;19985;-73
2023/03/13 14:11:20;;;;;;;;;;;;;;;-144.98;100.00;62585.19;4956069;29;19986;-72
2023/03/13 14:14:23;;;;;;;;;;;;;;;-144.98;100.00;62585.19;4954868;29;20394;-73
2023/03/13 14:17:27;;;;;;;;;;;;;;;-144.98;100.00;62585.19;4955592;29;20013;-80
2023/03/13 14:20:35;;;;;;;;;;;;;;;-144.98;100.00;62585.19;4955415;29;20450;-75
2023/03/13 14:23:44;;;;;;;;;;;;;;;-144.98;100.00;62585.19;4954456;28;19993;-75
2023/03/13 14:26:47;;;;;;;;;;;;;;;-144.98;100.00;62585.19;4955553;29;19943;-72
2023/03/13 14:30:02;;;;;;;;;;;;;;;-144.98;100.00;62585.19;4955046;29;20017;-73
2023/03/13 14:33:06;;;;;;;;;;;;;;;-144.98;100.00;62585.19;4954258;29;19925;-73
2023/03/13 14:36:11;;;;;;;;;;;;;;;-144.98;100.00;62585.19;4955537;29;20458;-75
2023/03/13 14:39:37;;;;;;;;;;;;;;;-144.98;100.00;62585.19;4955444;29;19943;-75
2023/03/13 14:42:44;;;;;;;;;;;;;;;-144.98;100.00;62585.19;4953689;28;19926;-73
2023/03/13 14:45:48;;;;;;;;;;;;;;;-144.98;100.00;62585.19;4955622;29;19977;-73
2023/03/13 14:48:53;;;;;;;;;;;;;;;-144.98;100.00;62585.19;4933045;29;19929;-73
2023/03/13 14:52:05;;;;;;;;;;;;;;;-144.98;100.00;62585.19;4936276;29;19930;-72
2023/03/13 14:55:21;;;;;;;;;;;;;;;-144.98;100.00;62585.19;4936090;29;20307;-73
2023/03/13 14:58:30;;;;;;;;;;;;;;;-144.98;100.00;62585.19;4936230;29;19926;-73
2023/03/13 15:01:33;;;;;;;;;;;;;;;-144.98;100.00;62585.19;4936495;29;19966;-73
2023/03/13 15:04:50;;;;;;;;;;;;;;;-144.98;100.00;62585.19;4935177;29;20291;-73
2023/03/13 15:07:54;;;;;;;;;;;;;;;-144.98;100.00;62585.19;4935962;29;19925;-73
2023/03/13 15:10:57;;;;;;;;;;;;;;;-144.98;100.00;62585.19;4935935;29;19926;-71
2023/03/13 15:14:00;;;;;;;;;;;;;;;-144.98;100.00;62585.19;4935980;29;19972;-73
2023/03/13 15:17:10;;;;;;;;;;;;;;;-144.98;100.00;62585.19;4924306;29;20381;-75
2023/03/13 15:20:13;;;;;;;;;;;;;;;-144.98;100.00;62585.19;4935173;29;19925;-73
2023/03/13 15:23:17;;;;;;;;;;;;;;;-144.98;100.00;62585.19;4935889;29;19933;-75
2023/03/13 15:26:21;;;;;;;;;;;;;;;-144.98;100.00;62585.19;4923936;29;20451;-74
2023/03/13 15:29:24;;;;;;;;;;;;;;;-144.98;100.00;62585.19;4911799;29;19946;-74
2023/03/13 15:32:32;;;;;;;;;;;;;;;-144.98;100.00;62585.19;4935591;29;19925;-72
2023/03/13 15:35:37;;;;;;;;;;;;;;;-144.98;100.00;62585.19;4935357;29;20017;-72
2023/03/13 15:43:01;;;;;;;;;;;;;;;-144.98;100.00;62585.19;4933733;29;20386;-70
2023/03/13 15:46:05;;;;;;;;;;;;;;;-144.98;100.00;62585.19;4936017;29;19965;-70
2023/03/13 15:49:12;;;;;;;;;;;;;;;-144.98;100.00;62585.19;4945957;29;19929;-70
2023/03/13 15:52:23;;;;;;;;;;;;;;;-144.98;100.00;62585.19;4954866;29;20303;-71